PWSweather.com
Personal Weather Stations
Station Observations

SasamonSasamonES 09123

Lat: 42.4180252, Lon: -4.0413679

Elevation: 2706.692

Station Type: PCE-FWS 20

http://www.mipaginapersonal.movistar.es/web3/meteosasamon/index.htm

High Low Average
Temperature 66.0°F18.9°C 48.7°F9.3°C 58.4°F14.7°C
Dew Point 45.9°F7.7°C 42.7°F5.9°C 44.3°F6.8°C
Winds 16.7 mph 26.9 kmh 4.3 mph 6.9 kmh 9.0 mph NNE14.5 kmh NNE
Wind Gusts 26.6 mph42.8 kmh 9.2 mph14.8 kmh 18.0 mph29.0 kmh
Humidity 82% 46% 62%
Pressure 30.19 in1022.4 mb 30.13 in1020.3 mb -
Precipitation 0.00 in0.0 mm - -
Hour Temp Dew Point Humidity Winds Wind Gusts Pressure Precip Precip Rate Daily Precip Total
03:27 PM 64.4°F18.0°C 42.7°F5.9°C 47% 7.4 mph NE11.9 kmh NE 16.8 mph27.0 kmh 30.14 in1020.7 mb 0.00 in0.0 mm 0.00 in/hr0.0 mm/hr 0.00 in0.0 mm
03:38 PM 65.1°F18.4°C 42.8°F6.0°C 46% 10.6 mph N17.1 kmh N 22.8 mph36.7 kmh 30.14 in1020.7 mb 0.00 in0.0 mm 0.00 in/hr0.0 mm/hr 0.00 in0.0 mm
03:49 PM 64.8°F18.2°C 43.1°F6.2°C 47% 9.8 mph NNE15.8 kmh NNE 21.3 mph34.3 kmh 30.14 in1020.7 mb 0.00 in0.0 mm 0.00 in/hr0.0 mm/hr 0.00 in0.0 mm
04:00 PM 64.8°F18.2°C 43.1°F6.2°C 47% 7.7 mph NE12.4 kmh NE 19.7 mph31.7 kmh 30.14 in1020.7 mb 0.00 in0.0 mm 0.00 in/hr0.0 mm/hr 0.00 in0.0 mm
04:11 PM 66.0°F18.9°C 43.6°F6.4°C 46% 5.4 mph NE8.7 kmh NE 18.3 mph29.5 kmh 30.14 in1020.7 mb 0.00 in0.0 mm 0.00 in/hr0.0 mm/hr 0.00 in0.0 mm
04:22 PM 64.8°F18.2°C 43.1°F6.2°C 47% 9.6 mph NE15.4 kmh NE 18.3 mph29.5 kmh 30.14 in1020.7 mb 0.00 in0.0 mm 0.00 in/hr0.0 mm/hr 0.00 in0.0 mm
04:33 PM 65.1°F18.4°C 43.4°F6.3°C 47% 10.0 mph N16.1 kmh N 18.3 mph29.5 kmh 30.14 in1020.7 mb 0.00 in0.0 mm 0.00 in/hr0.0 mm/hr 0.00 in0.0 mm
04:44 PM 65.3°F18.5°C 43.5°F6.4°C 47% 8.2 mph NE13.2 kmh NE 19.7 mph31.7 kmh 30.14 in1020.7 mb 0.00 in0.0 mm 0.00 in/hr0.0 mm/hr 0.00 in0.0 mm
04:55 PM 64.9°F18.3°C 43.8°F6.6°C 48% 9.4 mph NE15.1 kmh NE 18.3 mph29.5 kmh 30.14 in1020.7 mb 0.00 in0.0 mm 0.00 in/hr0.0 mm/hr 0.00 in0.0 mm
05:06 PM 65.8°F18.8°C 44.0°F6.7°C 47% 6.4 mph N10.3 kmh N 15.2 mph24.5 kmh 30.13 in1020.3 mb 0.00 in0.0 mm 0.00 in/hr0.0 mm/hr 0.00 in0.0 mm
05:17 PM 64.9°F18.3°C 43.8°F6.6°C 48% 9.2 mph N14.8 kmh N 19.0 mph30.6 kmh 30.13 in1020.3 mb 0.00 in0.0 mm 0.00 in/hr0.0 mm/hr 0.00 in0.0 mm
05:28 PM 64.9°F18.3°C 44.4°F6.9°C 49% 11.9 mph NNE19.2 kmh NNE 22.1 mph35.6 kmh 30.13 in1020.3 mb 0.00 in0.0 mm 0.00 in/hr0.0 mm/hr 0.00 in0.0 mm
05:39 PM 64.6°F18.1°C 44.7°F7.1°C 50% 10.2 mph NE16.4 kmh NE 21.3 mph34.3 kmh 30.13 in1020.3 mb 0.00 in0.0 mm 0.00 in/hr0.0 mm/hr 0.00 in0.0 mm
05:50 PM 64.8°F18.2°C 44.3°F6.8°C 49% 8.5 mph NE13.7 kmh NE 17.4 mph28.0 kmh 30.13 in1020.3 mb 0.00 in0.0 mm 0.00 in/hr0.0 mm/hr 0.00 in0.0 mm
06:01 PM 63.9°F17.7°C 44.6°F7.0°C 51% 11.7 mph NNE18.8 kmh NNE 20.6 mph33.2 kmh 30.13 in1020.3 mb 0.00 in0.0 mm 0.00 in/hr0.0 mm/hr 0.00 in0.0 mm
06:12 PM 63.7°F17.6°C 43.9°F6.6°C 50% 10.9 mph N17.5 kmh N 22.1 mph35.6 kmh 30.13 in1020.3 mb 0.00 in0.0 mm 0.00 in/hr0.0 mm/hr 0.00 in0.0 mm
06:23 PM 63.5°F17.5°C 44.3°F6.8°C 51% 10.7 mph NNE17.2 kmh NNE 20.6 mph33.2 kmh 30.13 in1020.3 mb 0.00 in0.0 mm 0.00 in/hr0.0 mm/hr 0.00 in0.0 mm
06:34 PM 63.1°F17.3°C 44.5°F6.9°C 52% 11.2 mph NNE18.0 kmh NNE 21.3 mph34.3 kmh 30.13 in1020.3 mb 0.00 in0.0 mm 0.00 in/hr0.0 mm/hr 0.00 in0.0 mm
06:45 PM 63.0°F17.2°C 44.3°F6.8°C 52% 11.0 mph NE17.7 kmh NE 19.7 mph31.7 kmh 30.13 in1020.3 mb 0.00 in0.0 mm 0.00 in/hr0.0 mm/hr 0.00 in0.0 mm
06:56 PM 63.0°F17.2°C 44.3°F6.8°C 52% 11.8 mph NNE19.0 kmh NNE 22.1 mph35.6 kmh 30.14 in1020.7 mb 0.00 in0.0 mm 0.00 in/hr0.0 mm/hr 0.00 in0.0 mm
07:07 PM 62.4°F16.9°C 44.4°F6.9°C 53% 11.4 mph NE18.3 kmh NE 20.6 mph33.2 kmh 30.14 in1020.7 mb 0.00 in0.0 mm 0.00 in/hr0.0 mm/hr 0.00 in0.0 mm
07:18 PM 61.2°F16.2°C 44.8°F7.1°C 56% 14.1 mph NE22.7 kmh NE 22.8 mph36.7 kmh 30.13 in1020.3 mb 0.00 in0.0 mm 0.00 in/hr0.0 mm/hr 0.00 in0.0 mm
07:29 PM 60.4°F15.8°C 44.6°F7.0°C 57% 13.5 mph NNE21.7 kmh NNE 23.5 mph37.8 kmh 30.14 in1020.7 mb 0.00 in0.0 mm 0.00 in/hr0.0 mm/hr 0.00 in0.0 mm
07:40 PM 59.9°F15.5°C 45.1°F7.3°C 59% 13.2 mph NNE21.2 kmh NNE 22.8 mph36.7 kmh 30.14 in1020.7 mb 0.00 in0.0 mm 0.00 in/hr0.0 mm/hr 0.00 in0.0 mm
07:51 PM 58.6°F14.8°C 45.3°F7.4°C 62% 16.7 mph NE26.9 kmh NE 25.9 mph41.7 kmh 30.15 in1021.0 mb 0.00 in0.0 mm 0.00 in/hr0.0 mm/hr 0.00 in0.0 mm
08:02 PM 57.9°F14.4°C 45.9°F7.7°C 65% 13.9 mph NNE22.4 kmh NNE 22.8 mph36.7 kmh 30.14 in1020.7 mb 0.00 in0.0 mm 0.00 in/hr0.0 mm/hr 0.00 in0.0 mm
08:13 PM 56.8°F13.8°C 45.3°F7.4°C 66% 14.9 mph NE24.0 kmh NE 26.6 mph42.8 kmh 30.15 in1021.0 mb 0.00 in0.0 mm 0.00 in/hr0.0 mm/hr 0.00 in0.0 mm
08:24 PM 56.1°F13.4°C 45.5°F7.5°C 68% 15.2 mph NNE24.5 kmh NNE 25.9 mph41.7 kmh 30.16 in1021.3 mb 0.00 in0.0 mm 0.00 in/hr0.0 mm/hr 0.00 in0.0 mm
08:35 PM 55.4°F13.0°C 45.2°F7.3°C 69% 14.5 mph NNE23.3 kmh NNE 24.4 mph39.3 kmh 30.16 in1021.3 mb 0.00 in0.0 mm 0.00 in/hr0.0 mm/hr 0.00 in0.0 mm
08:46 PM 54.9°F12.7°C 45.5°F7.5°C 71% 12.0 mph NNE19.3 kmh NNE 19.0 mph30.6 kmh 30.16 in1021.3 mb 0.00 in0.0 mm 0.00 in/hr0.0 mm/hr 0.00 in0.0 mm
08:57 PM 54.1°F12.3°C 45.2°F7.3°C 72% 8.9 mph NNE14.3 kmh NNE 16.8 mph27.0 kmh 30.17 in1021.7 mb 0.00 in0.0 mm 0.00 in/hr0.0 mm/hr 0.00 in0.0 mm
09:08 PM 53.8°F12.1°C 45.2°F7.3°C 73% 8.1 mph NE13.0 kmh NE 15.2 mph24.5 kmh 30.17 in1021.7 mb 0.00 in0.0 mm 0.00 in/hr0.0 mm/hr 0.00 in0.0 mm
09:19 PM 53.4°F11.9°C 44.8°F7.1°C 73% 6.1 mph NE9.8 kmh NE 15.2 mph24.5 kmh 30.17 in1021.7 mb 0.00 in0.0 mm 0.00 in/hr0.0 mm/hr 0.00 in0.0 mm
09:30 PM 52.9°F11.6°C 44.7°F7.1°C 74% 5.3 mph NE8.5 kmh NE 11.4 mph18.3 kmh 30.17 in1021.7 mb 0.00 in0.0 mm 0.00 in/hr0.0 mm/hr 0.00 in0.0 mm
09:41 PM 52.7°F11.5°C 44.9°F7.2°C 75% 6.7 mph NNE10.8 kmh NNE 13.0 mph20.9 kmh 30.17 in1021.7 mb 0.00 in0.0 mm 0.00 in/hr0.0 mm/hr 0.00 in0.0 mm
09:52 PM 52.5°F11.4°C 44.7°F7.1°C 75% 6.2 mph NNE10.0 kmh NNE 12.1 mph19.5 kmh 30.18 in1022.0 mb 0.00 in0.0 mm 0.00 in/hr0.0 mm/hr 0.00 in0.0 mm
10:03 PM 52.0°F11.1°C 44.2°F6.8°C 75% 4.7 mph NE7.6 kmh NE 10.7 mph17.2 kmh 30.18 in1022.0 mb 0.00 in0.0 mm 0.00 in/hr0.0 mm/hr 0.00 in0.0 mm
10:14 PM 51.4°F10.8°C 44.0°F6.7°C 76% 4.4 mph N7.1 kmh N 9.8 mph15.8 kmh 30.19 in1022.4 mb 0.00 in0.0 mm 0.00 in/hr0.0 mm/hr 0.00 in0.0 mm
10:25 PM 51.3°F10.7°C 44.2°F6.8°C 77% 5.0 mph NNE8.0 kmh NNE 9.8 mph15.8 kmh 30.18 in1022.0 mb 0.00 in0.0 mm 0.00 in/hr0.0 mm/hr 0.00 in0.0 mm
10:36 PM 50.7°F10.4°C 44.0°F6.7°C 78% 7.1 mph NNE11.4 kmh NNE 11.4 mph18.3 kmh 30.19 in1022.4 mb 0.00 in0.0 mm 0.00 in/hr0.0 mm/hr 0.00 in0.0 mm
10:47 PM 50.5°F10.3°C 44.2°F6.8°C 79% 4.3 mph NE6.9 kmh NE 9.8 mph15.8 kmh 30.19 in1022.4 mb 0.00 in0.0 mm 0.00 in/hr0.0 mm/hr 0.00 in0.0 mm
10:58 PM 50.2°F10.1°C 44.2°F6.8°C 80% 4.9 mph NE7.9 kmh NE 11.4 mph18.3 kmh 30.18 in1022.0 mb 0.00 in0.0 mm 0.00 in/hr0.0 mm/hr 0.00 in0.0 mm
11:09 PM 49.8°F9.9°C 44.2°F6.8°C 81% 6.6 mph N10.6 kmh N 13.0 mph20.9 kmh 30.18 in1022.0 mb 0.00 in0.0 mm 0.00 in/hr0.0 mm/hr 0.00 in0.0 mm
11:20 PM 49.6°F9.8°C 44.0°F6.7°C 81% 7.0 mph NE11.3 kmh NE 10.7 mph17.2 kmh 30.18 in1022.0 mb 0.00 in0.0 mm 0.00 in/hr0.0 mm/hr 0.00 in0.0 mm
11:31 PM 49.5°F9.7°C 44.2°F6.8°C 82% 6.3 mph N10.1 kmh N 9.8 mph15.8 kmh 30.18 in1022.0 mb 0.00 in0.0 mm 0.00 in/hr0.0 mm/hr 0.00 in0.0 mm
11:42 PM 48.9°F9.4°C 43.6°F6.4°C 82% 6.7 mph NNE10.8 kmh NNE 11.4 mph18.3 kmh 30.18 in1022.0 mb 0.00 in0.0 mm 0.00 in/hr0.0 mm/hr 0.00 in0.0 mm
11:53 PM 48.7°F9.3°C 43.5°F6.4°C 82% 4.3 mph NNE6.9 kmh NNE 9.2 mph14.8 kmh 30.18 in1022.0 mb 0.00 in0.0 mm 0.00 in/hr0.0 mm/hr 0.00 in0.0 mm